Time;durP1;ratioP1;P1;durP2;ratioP2;P2;SDS_P1;SDS_P2;PMS_P1;PMS_P2;Temp;Humidity;BMP_temperature;BMP_pressure;BME280_temperature;BME280_humidity;BME280_pressure;Samples;Min_cycle;Max_cycle;Signal;HPM_P1;HPM_P2
2024/02/25 00:03:18;;;;;;;1999.90;999.90;;;;;;;13.54;96.45;94665.63;10457853;28;20054;-79
2024/02/25 00:08:19;;;;;;;1999.90;999.90;;;;;;;13.54;95.94;94665.63;10457714;28;20290;-80
2024/02/25 00:13:21;;;;;;;1999.90;999.90;;;;;;;13.41;95.77;94677.16;10458410;28;20114;-80
2024/02/25 00:18:21;;;;;;;1999.90;999.90;;;;;;;13.50;96.61;94692.41;10445851;28;20056;-81
2024/02/25 00:23:22;;;;;;;1999.90;999.90;;;;;;;13.39;95.89;94690.94;10457313;28;20103;-80
2024/02/25 00:28:24;;;;;;;1999.90;999.90;;;;;;;13.43;95.93;94700.06;10456330;28;20051;-78
2024/02/25 00:33:24;;;;;;;1999.90;999.90;;;;;;;13.42;94.83;94698.44;10445854;28;20031;-79
2024/02/25 00:38:24;;;;;;;1999.90;999.90;;;;;;;13.48;94.95;94697.31;10456303;28;20378;-80
2024/02/25 00:43:25;;;;;;;1999.90;999.90;;;;;;;13.52;95.23;94692.09;10456562;28;20476;-81
2024/02/25 00:48:25;;;;;;;1999.90;999.90;;;;;;;13.54;96.95;94691.84;10448041;28;20090;-80
2024/02/25 00:53:25;;;;;;;1999.90;999.90;;;;;;;13.53;96.57;94698.31;10455740;28;20039;-81
2024/02/25 00:58:26;;;;;;;1999.90;999.90;;;;;;;13.50;98.11;94711.28;10456607;28;20111;-81
2024/02/25 01:03:26;;;;;;;1999.90;999.90;;;;;;;13.51;98.20;94704.00;10456181;28;20055;-79
2024/02/25 01:08:27;;;;;;;1999.90;999.90;;;;;;;13.33;99.75;94719.88;10455087;28;20028;-80
2024/02/25 01:13:27;;;;;;;1999.90;999.90;;;;;;;12.93;100.00;94710.41;10455003;28;20561;-81
2024/02/25 01:18:34;;;;;;;1999.90;999.90;;;;;;;12.90;100.00;94711.78;10455576;28;20490;-81
2024/02/25 01:23:34;;;;;;;1999.90;999.90;;;;;;;12.88;100.00;94705.06;10461566;28;20028;-80
2024/02/25 01:28:35;;;;;;;1999.90;999.90;;;;;;;13.01;100.00;94703.59;10455522;28;20025;-81
2024/02/25 01:33:35;;;;;;;1999.90;999.90;;;;;;;12.82;100.00;94705.16;10452741;28;20023;-82
2024/02/25 01:38:35;;;;;;;1999.90;999.90;;;;;;;12.58;100.00;94705.13;10461830;28;20453;-82
2024/02/25 01:43:39;;;;;;;1999.90;999.90;;;;;;;12.54;100.00;94711.38;10457349;28;20479;-80
2024/02/25 01:48:40;;;;;;;1999.90;999.90;;;;;;;12.63;100.00;94715.06;10465404;28;20425;-80
2024/02/25 01:53:40;;;;;;;1999.90;999.90;;;;;;;12.66;100.00;94719.88;10462829;28;20028;-80
2024/02/25 01:58:41;;;;;;;1999.90;999.90;;;;;;;12.73;100.00;94717.66;10464137;28;20267;-80
2024/02/25 02:03:42;;;;;;;1999.90;999.90;;;;;;;12.90;100.00;94709.09;10463490;28;20037;-80
2024/02/25 02:08:42;;;;;;;1999.90;999.90;;;;;;;12.96;100.00;94699.03;10462324;28;20090;-81
2024/02/25 02:13:42;;;;;;;1999.90;999.90;;;;;;;12.97;100.00;94700.66;10464229;28;20086;-81
2024/02/25 02:18:44;;;;;;;1999.90;999.90;;;;;;;12.94;100.00;94703.94;10462591;28;20781;-80
2024/02/25 02:23:45;;;;;;;1999.90;999.90;;;;;;;12.48;100.00;94699.84;10431839;28;20037;-81
2024/02/25 02:28:45;;;;;;;1999.90;999.90;;;;;;;12.20;100.00;94693.41;10424663;28;20453;-81
2024/02/25 02:33:46;;;;;;;1999.90;999.90;;;;;;;12.00;100.00;94691.69;10433058;28;20085;-80
2024/02/25 02:38:47;;;;;;;1999.90;999.90;;;;;;;11.80;100.00;94702.34;10463042;28;20025;-79
2024/02/25 02:43:47;;;;;;;1999.90;999.90;;;;;;;11.72;100.00;94697.56;10462068;28;20041;-79
2024/02/25 02:48:47;;;;;;;1999.90;999.90;;;;;;;11.61;100.00;94704.09;10457756;28;20377;-87
2024/02/25 02:53:51;;;;;;;1999.90;999.90;;;;;;;11.58;100.00;94683.94;10464401;28;20074;-77
2024/02/25 02:58:51;;;;;;;1999.90;999.90;;;;;;;11.55;100.00;94687.16;10445971;28;20465;-78
2024/02/25 03:03:51;;;;;;;1999.90;999.90;;;;;;;11.49;100.00;94690.19;10448460;28;20089;-78
2024/02/25 03:08:52;;;;;;;1999.90;999.90;;;;;;;11.51;100.00;94682.63;10446929;28;20497;-78
2024/02/25 03:13:52;;;;;;;1999.90;999.90;;;;;;;11.48;100.00;94685.88;10441657;28;20846;-77
2024/02/25 03:18:53;;;;;;;1999.90;999.90;;;;;;;11.46;100.00;94680.78;10444470;28;20700;-76
2024/02/25 03:23:53;;;;;;;1999.90;999.90;;;;;;;11.54;100.00;94684.75;10447831;28;20043;-77
2024/02/25 03:28:53;;;;;;;1999.90;999.90;;;;;;;11.50;100.00;94681.00;10446154;28;20510;-77
2024/02/25 03:33:54;;;;;;;1999.90;999.90;;;;;;;11.63;100.00;94686.56;10459333;28;20107;-80
2024/02/25 03:38:54;;;;;;;1999.90;999.90;;;;;;;11.77;100.00;94689.41;10444832;28;20282;-80
2024/02/25 03:43:54;;;;;;;1999.90;999.90;;;;;;;11.83;100.00;94679.41;10458309;28;20063;-79
2024/02/25 03:48:55;;;;;;;1999.90;999.90;;;;;;;11.82;100.00;94688.59;10446198;28;20302;-79
2024/02/25 03:53:55;;;;;;;1999.90;999.90;;;;;;;11.85;100.00;94689.91;10431159;28;20274;-78
2024/02/25 03:58:55;;;;;;;1999.90;999.90;;;;;;;11.83;100.00;94703.63;10412197;28;20025;-78
2024/02/25 04:03:56;;;;;;;1999.90;999.90;;;;;;;11.65;100.00;94713.19;10428604;28;20385;-78
2024/02/25 04:08:56;;;;;;;1999.90;999.90;;;;;;;11.45;100.00;94722.22;10429971;28;20041;-79
2024/02/25 04:13:57;;;;;;;1999.90;999.90;;;;;;;10.94;100.00;94726.78;10429578;28;20017;-79
2024/02/25 04:18:57;;;;;;;1999.90;999.90;;;;;;;10.54;100.00;94730.41;10412464;28;20147;-78
2024/02/25 04:23:58;;;;;;;1999.90;999.90;;;;;;;10.23;100.00;94731.25;10464056;28;20081;-78
2024/02/25 04:28:58;;;;;;;1999.90;999.90;;;;;;;10.25;100.00;94736.34;10472613;28;20122;-81
2024/02/25 04:33:58;;;;;;;1999.90;999.90;;;;;;;10.36;100.00;94739.84;10471580;28;20273;-79
2024/02/25 04:38:59;;;;;;;1999.90;999.90;;;;;;;10.39;100.00;94739.31;10471369;28;20273;-79
2024/02/25 04:43:59;;;;;;;1999.90;999.90;;;;;;;10.42;100.00;94750.34;10470373;28;20307;-81
2024/02/25 04:48:59;;;;;;;1999.90;999.90;;;;;;;10.47;100.00;94760.25;10470342;28;20060;-80
2024/02/25 04:54:01;;;;;;;1999.90;999.90;;;;;;;10.47;100.00;94754.88;10468801;28;20431;-78
2024/02/25 04:59:01;;;;;;;1999.90;999.90;;;;;;;10.58;100.00;94753.78;10469477;28;20483;-78
2024/02/25 05:04:01;;;;;;;1999.90;999.90;;;;;;;10.51;100.00;94758.63;10468368;28;20098;-79
2024/02/25 05:09:03;;;;;;;1999.90;999.90;;;;;;;10.51;100.00;94764.00;10441273;28;20375;-79
2024/02/25 05:14:04;;;;;;;1999.90;999.90;;;;;;;10.46;100.00;94761.31;10442442;28;20449;-80
2024/02/25 05:19:04;;;;;;;1999.90;999.90;;;;;;;10.63;100.00;94755.63;10451058;28;20052;-80
2024/02/25 05:24:05;;;;;;;1999.90;999.90;;;;;;;10.43;100.00;94768.03;10465277;28;20645;-80
2024/02/25 05:29:05;;;;;;;1999.90;999.90;;;;;;;10.51;100.00;94773.97;10460787;28;20104;-79
2024/02/25 05:34:06;;;;;;;1999.90;999.90;;;;;;;10.42;100.00;94779.88;10450463;28;20441;-79
2024/02/25 05:39:08;;;;;;;1999.90;999.90;;;;;;;10.38;100.00;94778.00;10448457;28;20337;-80
2024/02/25 05:44:08;;;;;;;1999.90;999.90;;;;;;;10.12;100.00;94779.84;10446319;28;20036;-80
2024/02/25 05:49:09;;;;;;;1999.90;999.90;;;;;;;10.04;100.00;94786.56;10417263;28;20425;-79
2024/02/25 05:54:09;;;;;;;1999.90;999.90;;;;;;;10.19;100.00;94794.63;10429221;28;20029;-81
2024/02/25 05:59:10;;;;;;;1999.90;999.90;;;;;;;10.09;100.00;94800.81;10426288;28;20024;-83
2024/02/25 06:04:10;;;;;;;1999.90;999.90;;;;;;;10.08;100.00;94801.09;10431595;28;20591;-80
2024/02/25 06:09:10;;;;;;;1999.90;999.90;;;;;;;10.18;100.00;94802.97;10436134;28;20819;-82
2024/02/25 06:14:12;;;;;;;1999.90;999.90;;;;;;;10.32;100.00;94809.41;10434044;28;20725;-83
2024/02/25 06:19:12;;;;;;;1999.90;999.90;;;;;;;10.42;100.00;94816.69;10433491;28;20287;-82
2024/02/25 06:24:13;;;;;;;1999.90;999.90;;;;;;;10.54;100.00;94814.53;10443591;28;20021;-80
2024/02/25 06:29:14;;;;;;;1999.90;999.90;;;;;;;10.64;100.00;94820.97;10433970;28;20064;-79
2024/02/25 06:34:14;;;;;;;1999.90;999.90;;;;;;;10.55;100.00;94808.06;10454731;28;20275;-79
2024/02/25 06:39:15;;;;;;;1999.90;999.90;;;;;;;10.50;100.00;94808.06;10474445;28;20411;-77
2024/02/25 06:44:15;;;;;;;1999.90;999.90;;;;;;;10.36;100.00;94817.75;10468830;28;20297;-77
2024/02/25 06:49:15;;;;;;;1999.90;999.90;;;;;;;10.28;100.00;94813.69;10468079;28;20032;-78
2024/02/25 06:54:16;;;;;;;1999.90;999.90;;;;;;;10.22;100.00;94814.78;10467270;28;20078;-77
2024/02/25 06:59:16;;;;;;;1999.90;999.90;;;;;;;10.34;100.00;94819.88;10472014;28;20033;-81
2024/02/25 07:04:17;;;;;;;1999.90;999.90;;;;;;;10.26;100.00;94821.22;10478426;28;20115;-83
2024/02/25 07:09:18;;;;;;;1999.90;999.90;;;;;;;10.31;100.00;94823.94;10463310;28;20270;-81
2024/02/25 07:14:18;;;;;;;1999.90;999.90;;;;;;;10.40;100.00;94829.59;10498172;28;20077;-82
2024/02/25 07:19:18;;;;;;;1999.90;999.90;;;;;;;10.41;100.00;94828.53;10497408;28;20048;-81
2024/02/25 07:24:19;;;;;;;1999.90;999.90;;;;;;;10.49;100.00;94816.41;10483192;28;20060;-79
2024/02/25 07:29:19;;;;;;;1999.90;999.90;;;;;;;10.36;100.00;94805.13;10474499;28;20320;-82
2024/02/25 07:34:20;;;;;;;1999.90;999.90;;;;;;;10.27;100.00;94804.84;10473929;28;20013;-79
2024/02/25 07:39:20;;;;;;;1999.90;999.90;;;;;;;10.40;100.00;94806.19;10474760;28;20516;-76
2024/02/25 07:44:20;;;;;;;1999.90;999.90;;;;;;;10.52;100.00;94802.44;10467617;28;20041;-85
2024/02/25 07:49:21;;;;;;;1999.90;999.90;;;;;;;10.57;100.00;94802.44;10465240;28;20078;-80
2024/02/25 07:54:22;;;;;;;1999.90;999.90;;;;;;;10.74;100.00;94796.75;10454080;28;20103;-76
2024/02/25 07:59:22;;;;;;;1999.90;999.90;;;;;;;10.85;100.00;94792.16;10451069;28;20020;-81
2024/02/25 08:04:24;;;;;;;1999.90;999.90;;;;;;;10.95;100.00;94789.44;10457829;28;20040;-83
2024/02/25 08:09:24;;;;;;;1999.90;999.90;;;;;;;11.00;100.00;94788.63;10449689;28;20342;-80
2024/02/25 08:14:25;;;;;;;1999.90;999.90;;;;;;;11.13;100.00;94787.22;10447609;28;20036;-79
2024/02/25 08:19:25;;;;;;;1999.90;999.90;;;;;;;11.32;100.00;94779.34;10450962;28;20079;-77
2024/02/25 08:24:26;;;;;;;1999.90;999.90;;;;;;;11.40;100.00;94778.75;10453586;28;20033;-88
2024/02/25 08:29:26;;;;;;;1999.90;999.90;;;;;;;11.62;100.00;94770.28;10454100;28;20491;-77
2024/02/25 08:34:27;;;;;;;1999.90;999.90;;;;;;;11.74;100.00;94764.56;10443906;28;20486;-72
2024/02/25 08:39:27;;;;;;;1999.90;999.90;;;;;;;11.79;100.00;94756.44;10443142;28;20036;-79
2024/02/25 08:44:27;;;;;;;1999.90;999.90;;;;;;;11.66;100.00;94762.47;10447924;28;20119;-75
2024/02/25 08:49:28;;;;;;;1999.90;999.90;;;;;;;11.66;100.00;94757.88;10445829;28;20060;-80
2024/02/25 08:54:28;;;;;;;1999.90;999.90;;;;;;;12.07;100.00;94749.56;10437984;28;20391;-75
2024/02/25 08:59:28;;;;;;;1999.90;999.90;;;;;;;12.29;100.00;94750.97;10444878;28;20399;-81
2024/02/25 09:04:29;;;;;;;1999.90;999.90;;;;;;;12.46;100.00;94745.97;10445482;28;20027;-76
2024/02/25 09:09:29;;;;;;;1999.90;999.90;;;;;;;12.76;100.00;94727.84;10446925;28;20489;-76
2024/02/25 09:14:30;;;;;;;1999.90;999.90;;;;;;;12.98;100.00;94737.34;10447645;28;20829;-79
2024/02/25 09:19:30;;;;;;;1999.90;999.90;;;;;;;13.12;100.00;94732.84;10447446;28;20291;-78
2024/02/25 09:24:30;;;;;;;1999.90;999.90;;;;;;;13.25;100.00;94735.91;10445363;28;20295;-79
2024/02/25 09:29:31;;;;;;;1999.90;999.90;;;;;;;13.38;100.00;94731.72;10429120;28;20020;-78
2024/02/25 09:34:31;;;;;;;1999.90;999.90;;;;;;;13.57;100.00;94727.13;10444441;28;20474;-78
2024/02/25 09:39:31;;;;;;;1999.90;999.90;;;;;;;13.73;100.00;94725.03;10423576;28;20046;-77
2024/02/25 09:44:34;;;;;;;1999.90;999.90;;;;;;;13.74;100.00;94717.72;10443609;28;20040;-78
2024/02/25 09:49:35;;;;;;;1999.90;999.90;;;;;;;13.90;100.00;94704.75;10447909;28;20036;-76
2024/02/25 09:54:39;;;;;;;1999.90;999.90;;;;;;;13.94;100.00;94713.88;10454890;28;20437;-79
2024/02/25 09:59:43;;;;;;;1999.90;999.90;;;;;;;14.01;100.00;94701.63;10440565;28;20154;-78
2024/02/25 10:04:43;;;;;;;1999.90;999.90;;;;;;;14.16;100.00;94700.56;10451222;28;20063;-78
2024/02/25 10:09:48;;;;;;;1999.90;999.90;;;;;;;14.17;100.00;94698.66;10450271;28;20442;-76
2024/02/25 10:14:53;;;;;;;1999.90;999.90;;;;;;;13.90;100.00;94689.38;10453249;28;20123;-74
2024/02/25 10:19:56;;;;;;;1999.90;999.90;;;;;;;13.76;100.00;94683.09;10452848;28;20439;-75
2024/02/25 10:25:04;;;;;;;1999.90;999.90;;;;;;;13.94;100.00;94673.34;10451676;28;20028;-75
2024/02/25 10:30:06;;;;;;;1999.90;999.90;;;;;;;14.16;100.00;94670.00;10453394;28;20050;-76
2024/02/25 10:35:09;;;;;;;1999.90;999.90;;;;;;;14.16;100.00;94670.00;10463199;28;20035;-76
2024/02/25 10:40:11;;;;;;;1999.90;999.90;;;;;;;14.14;100.00;94667.63;10452849;28;20036;-74
2024/02/25 10:45:16;;;;;;;1999.90;999.90;;;;;;;14.49;100.00;94657.25;10452800;28;20064;-76
2024/02/25 10:50:20;;;;;;;1999.90;999.90;;;;;;;14.66;100.00;94650.47;10453070;28;20124;-76
2024/02/25 10:55:21;;;;;;;1999.90;999.90;;;;;;;14.91;100.00;94640.25;10451816;28;20402;-76
2024/02/25 11:00:22;;;;;;;1999.90;999.90;;;;;;;15.07;100.00;94638.00;10452691;28;20032;-77
2024/02/25 11:05:22;;;;;;;1999.90;999.90;;;;;;;15.27;100.00;94620.53;10456331;28;20548;-79
2024/02/25 11:10:31;;;;;;;1999.90;999.90;;;;;;;15.28;100.00;94619.41;10445814;28;20480;-81
2024/02/25 11:15:32;;;;;;;1999.90;999.90;;;;;;;14.94;100.00;94618.78;10450848;28;20428;-81
2024/02/25 11:20:35;;;;;;;1999.90;999.90;;;;;;;14.82;100.00;94621.22;10465578;28;20048;-76
2024/02/25 11:25:36;;;;;;;1999.90;999.90;;;;;;;14.47;100.00;94605.38;10442925;28;20322;-76
2024/02/25 11:30:46;;;;;;;1999.90;999.90;;;;;;;13.92;100.00;94616.91;10452129;28;20534;-79
2024/02/25 11:35:46;;;;;;;1999.90;999.90;;;;;;;13.84;100.00;94609.50;10449769;28;20024;-79
2024/02/25 11:40:47;;;;;;;1999.90;999.90;;;;;;;13.83;100.00;94618.72;10459092;28;20472;-75
2024/02/25 11:45:47;;;;;;;1999.90;999.90;;;;;;;13.66;100.00;94603.88;10450850;28;20036;-80
2024/02/25 11:50:49;;;;;;;1999.90;999.90;;;;;;;13.31;100.00;94603.31;10447235;28;20089;-81
2024/02/25 11:55:51;;;;;;;1999.90;999.90;;;;;;;13.26;100.00;94591.78;10435564;28;20471;-84
2024/02/25 12:00:52;;;;;;;1999.90;999.90;;;;;;;13.10;100.00;94578.53;10450112;28;20036;-85
2024/02/25 12:05:52;;;;;;;1999.90;999.90;;;;;;;12.99;100.00;94568.97;10450046;28;20467;-82
2024/02/25 12:10:53;;;;;;;1999.90;999.90;;;;;;;12.98;100.00;94572.78;10450256;28;20028;-81
2024/02/25 12:15:54;;;;;;;1999.90;999.90;;;;;;;12.65;100.00;94570.78;10445482;28;20484;-77
2024/02/25 12:20:54;;;;;;;1999.90;999.90;;;;;;;12.85;100.00;94551.91;10445520;28;20449;-77
2024/02/25 12:26:04;;;;;;;1999.90;999.90;;;;;;;12.90;100.00;94562.63;10444271;28;20202;-76
2024/02/25 12:31:06;;;;;;;1999.90;999.90;;;;;;;12.52;100.00;94549.94;10440763;28;20482;-81
2024/02/25 12:36:08;;;;;;;1999.90;999.90;;;;;;;12.49;100.00;94547.81;10444143;28;20039;-79
2024/02/25 12:41:08;;;;;;;1999.90;999.90;;;;;;;12.78;100.00;94539.59;10457634;28;20033;-81
2024/02/25 12:46:09;;;;;;;1999.90;999.90;;;;;;;12.81;100.00;94533.63;10433826;28;20367;-79
2024/02/25 12:51:15;;;;;;;1999.90;999.90;;;;;;;12.55;100.00;94532.38;10419283;28;20036;-87
2024/02/25 12:56:42;;;;;;;1999.90;999.90;;;;;;;12.57;100.00;94524.78;10449653;28;21101;-83
2024/02/25 13:01:43;;;;;;;1999.90;999.90;;;;;;;12.68;100.00;94517.38;10435997;28;20058;-79
2024/02/25 13:06:43;;;;;;;1999.90;999.90;;;;;;;12.76;100.00;94503.25;10451588;28;20043;-84
2024/02/25 13:11:44;;;;;;;1999.90;999.90;;;;;;;12.91;100.00;94492.22;10466744;28;20162;-84
2024/02/25 13:16:44;;;;;;;1999.90;999.90;;;;;;;13.05;100.00;94491.47;10441269;28;20657;-79
2024/02/25 13:21:44;;;;;;;1999.90;999.90;;;;;;;13.20;100.00;94483.13;10448671;28;21252;-83
2024/02/25 13:26:45;;;;;;;1999.90;999.90;;;;;;;13.31;100.00;94472.94;10434901;28;20074;-78
2024/02/25 13:31:45;;;;;;;1999.90;999.90;;;;;;;13.32;100.00;94469.16;10452594;28;20032;-82
2024/02/25 13:36:46;;;;;;;1999.90;999.90;;;;;;;13.49;100.00;94469.44;10438347;28;20032;-82
2024/02/25 13:41:47;;;;;;;1999.90;999.90;;;;;;;13.61;100.00;94454.63;10446056;28;20696;-77
2024/02/25 13:46:49;;;;;;;1999.90;999.90;;;;;;;13.73;100.00;94456.81;10445689;28;20640;-77
2024/02/25 13:51:49;;;;;;;1999.90;999.90;;;;;;;13.81;100.00;94450.72;10443470;28;20082;-76
2024/02/25 13:56:51;;;;;;;1999.90;999.90;;;;;;;13.80;100.00;94451.81;10447677;28;20468;-77
2024/02/25 14:01:52;;;;;;;1999.90;999.90;;;;;;;13.85;100.00;94443.63;10447097;28;20347;-76
2024/02/25 14:06:53;;;;;;;1999.90;999.90;;;;;;;13.91;100.00;94439.75;10446600;28;20033;-77
2024/02/25 14:11:53;;;;;;;1999.90;999.90;;;;;;;13.85;100.00;94433.63;10446556;28;20448;-76
2024/02/25 14:16:54;;;;;;;1999.90;999.90;;;;;;;13.92;100.00;94421.63;10445004;28;20089;-79
2024/02/25 14:21:54;;;;;;;1999.90;999.90;;;;;;;13.91;100.00;94417.31;10445867;28;20048;-74
2024/02/25 14:26:55;;;;;;;1999.90;999.90;;;;;;;13.93;100.00;94412.41;10446732;28;20500;-76
2024/02/25 14:31:57;;;;;;;1999.90;999.90;;;;;;;13.97;100.00;94413.41;10457721;28;20026;-78
2024/02/25 14:36:58;;;;;;;1999.90;999.90;;;;;;;13.36;100.00;94423.50;10458798;28;20035;-79
2024/02/25 14:41:58;;;;;;;1999.90;999.90;;;;;;;12.93;100.00;94414.50;10457489;28;20032;-78
2024/02/25 14:46:58;;;;;;;1999.90;999.90;;;;;;;12.78;100.00;94406.66;10452736;28;20245;-78
2024/02/25 14:52:02;;;;;;;1999.90;999.90;;;;;;;12.78;100.00;94404.78;10452250;28;20037;-74
2024/02/25 14:57:03;;;;;;;1999.90;999.90;;;;;;;12.71;100.00;94398.97;10449383;28;20081;-75
2024/02/25 15:02:04;;;;;;;1999.90;999.90;;;;;;;12.92;100.00;94385.94;10439552;28;20443;-76
2024/02/25 15:07:04;;;;;;;1999.90;999.90;;;;;;;12.88;100.00;94394.91;10449137;28;20025;-79
2024/02/25 15:12:05;;;;;;;1999.90;999.90;;;;;;;12.87;100.00;94382.53;10453076;28;20562;-76
2024/02/25 15:17:05;;;;;;;1999.90;999.90;;;;;;;12.94;100.00;94372.94;10449742;28;20395;-78
2024/02/25 15:22:06;;;;;;;1999.90;999.90;;;;;;;13.13;100.00;94364.78;10452002;28;20504;-75
2024/02/25 15:27:07;;;;;;;1999.90;999.90;;;;;;;13.16;100.00;94368.78;10436994;28;20568;-76
2024/02/25 15:32:08;;;;;;;1999.90;999.90;;;;;;;13.05;100.00;94373.56;10441923;28;21022;-76
2024/02/25 15:37:14;;;;;;;1999.90;999.90;;;;;;;12.78;100.00;94374.28;10447301;28;20029;-92
2024/02/25 15:42:16;;;;;;;1999.90;999.90;;;;;;;12.59;100.00;94377.84;10458500;28;20055;-85
2024/02/25 15:47:17;;;;;;;1999.90;999.90;;;;;;;12.56;100.00;94366.84;10461772;28;20028;-88
2024/02/25 15:52:18;;;;;;;1999.90;999.90;;;;;;;12.40;100.00;94369.78;10489674;28;20124;-88
2024/02/25 15:57:19;;;;;;;1999.90;999.90;;;;;;;12.42;100.00;94382.94;10474122;28;20476;-93
2024/02/25 16:02:19;;;;;;;1999.90;999.90;;;;;;;12.48;100.00;94384.50;10454286;28;20055;-85
2024/02/25 16:07:20;;;;;;;1999.90;999.90;;;;;;;12.48;100.00;94382.59;10470016;28;20032;-91
2024/02/25 16:12:21;;;;;;;1999.90;999.90;;;;;;;12.52;100.00;94384.72;10458623;28;20524;-83
2024/02/25 16:17:28;;;;;;;1999.90;999.90;;;;;;;12.43;100.00;94390.78;10469488;28;20024;-86
2024/02/25 16:22:28;;;;;;;1999.90;999.90;;;;;;;12.07;100.00;94391.28;10465687;28;20036;-85
2024/02/25 16:27:28;;;;;;;1999.90;999.90;;;;;;;11.84;100.00;94384.03;10450551;28;20406;-85
2024/02/25 16:32:29;;;;;;;1999.90;999.90;;;;;;;11.87;100.00;94389.63;10463640;28;20077;-87
2024/02/25 16:37:31;;;;;;;1999.90;999.90;;;;;;;11.99;100.00;94404.59;10453445;28;20271;-77
2024/02/25 16:42:31;;;;;;;1999.90;999.90;;;;;;;12.09;100.00;94407.16;10454523;28;20387;-83
2024/02/25 16:47:32;;;;;;;1999.90;999.90;;;;;;;11.69;100.00;94410.03;10460433;28;20028;-78
2024/02/25 16:52:33;;;;;;;1999.90;999.90;;;;;;;11.92;100.00;94413.00;10445692;28;20371;-80
2024/02/25 16:57:33;;;;;;;1999.90;999.90;;;;;;;12.06;100.00;94405.06;10450309;28;20776;-79
2024/02/25 17:02:33;;;;;;;1999.90;999.90;;;;;;;12.08;100.00;94409.06;10446804;28;20043;-82
2024/02/25 17:07:36;;;;;;;1999.90;999.90;;;;;;;12.12;100.00;94403.88;10448592;28;20356;-80
2024/02/25 17:12:39;;;;;;;1999.90;999.90;;;;;;;12.16;100.00;94412.97;10452887;28;20021;-80
2024/02/25 17:17:39;;;;;;;1999.90;999.90;;;;;;;12.16;100.00;94412.97;10440221;28;20032;-79
2024/02/25 17:22:46;;;;;;;1999.90;999.90;;;;;;;12.25;100.00;94402.34;10452045;28;20055;-83
2024/02/25 17:27:46;;;;;;;1999.90;999.90;;;;;;;12.08;100.00;94394.78;10434732;28;20294;-83
2024/02/25 17:32:47;;;;;;;1999.90;999.90;;;;;;;11.93;100.00;94406.50;10451222;28;20024;-77
2024/02/25 17:37:50;;;;;;;1999.90;999.90;;;;;;;11.76;100.00;94405.13;10449223;28;20024;-84
2024/02/25 17:42:55;;;;;;;1999.90;999.90;;;;;;;11.67;100.00;94398.78;10467966;28;20036;-86
2024/02/25 17:47:56;;;;;;;1999.90;999.90;;;;;;;11.69;100.00;94393.88;10461554;28;20032;-77
2024/02/25 17:52:57;;;;;;;1999.90;999.90;;;;;;;11.41;100.00;94392.88;10450362;28;20359;-76
2024/02/25 17:57:57;;;;;;;1999.90;999.90;;;;;;;11.38;100.00;94382.69;10436879;28;20441;-76
2024/02/25 18:03:00;;;;;;;1999.90;999.90;;;;;;;11.42;100.00;94387.22;10453963;28;20698;-76
2024/02/25 18:08:02;;;;;;;1999.90;999.90;;;;;;;11.31;100.00;94376.88;10453312;28;20572;-77
2024/02/25 18:13:03;;;;;;;1999.90;999.90;;;;;;;11.36;100.00;94379.47;10440425;28;20051;-77
2024/02/25 18:18:04;;;;;;;1999.90;999.90;;;;;;;11.16;100.00;94375.13;10452794;28;20123;-76
2024/02/25 18:23:04;;;;;;;1999.90;999.90;;;;;;;11.07;100.00;94377.66;10453136;28;20045;-76
2024/02/25 18:28:07;;;;;;;1999.90;999.90;;;;;;;11.03;100.00;94387.38;10440884;28;20056;-77
2024/02/25 18:33:08;;;;;;;1999.90;999.90;;;;;;;11.07;100.00;94377.66;10452540;28;20028;-76
2024/02/25 18:38:08;;;;;;;1999.90;999.90;;;;;;;10.87;100.00;94375.94;10452055;28;20025;-77
2024/02/25 18:43:09;;;;;;;1999.90;999.90;;;;;;;10.97;100.00;94383.94;10446208;28;20571;-76
2024/02/25 18:48:10;;;;;;;1999.90;999.90;;;;;;;11.09;100.00;94378.97;10451786;28;20038;-80
2024/02/25 18:53:11;;;;;;;1999.90;999.90;;;;;;;11.14;100.00;94377.31;10458360;28;20020;-79
2024/02/25 18:58:12;;;;;;;1999.90;999.90;;;;;;;11.19;100.00;94364.63;10439455;28;20437;-78
2024/02/25 19:03:13;;;;;;;1999.90;999.90;;;;;;;11.25;100.00;94373.44;10454510;28;20119;-79
2024/02/25 19:08:15;;;;;;;1999.90;999.90;;;;;;;11.16;100.00;94367.84;10457584;28;20020;-80
2024/02/25 19:13:16;;;;;;;1999.90;999.90;;;;;;;11.12;100.00;94369.50;10451576;28;20036;-81
2024/02/25 19:18:35;;;;;;;1999.90;999.90;;;;;;;11.02;100.00;94375.00;10452843;28;20048;-81
2024/02/25 19:23:36;;;;;;;1999.90;999.90;;;;;;;10.94;100.00;94366.47;10446709;28;20025;-83
2024/02/25 19:28:38;;;;;;;1999.90;999.90;;;;;;;11.01;100.00;94373.41;10455785;28;20463;-83
2024/02/25 19:33:39;;;;;;;1999.90;999.90;;;;;;;10.91;100.00;94375.13;10429017;28;20440;-83
2024/02/25 19:38:39;;;;;;;1999.90;999.90;;;;;;;10.86;100.00;94359.03;10431841;28;20070;-81
2024/02/25 19:43:40;;;;;;;1999.90;999.90;;;;;;;10.77;100.00;94364.22;10457119;28;20089;-82
2024/02/25 19:48:40;;;;;;;1999.90;999.90;;;;;;;10.64;100.00;94359.50;10439578;28;20685;-83
2024/02/25 19:53:42;;;;;;;1999.90;999.90;;;;;;;10.57;100.00;94356.34;10468269;28;20021;-82
2024/02/25 19:58:42;;;;;;;1999.90;999.90;;;;;;;10.36;100.00;94356.50;10467503;28;20270;-81
2024/02/25 20:03:43;;;;;;;1999.90;999.90;;;;;;;10.25;100.00;94357.63;10438266;28;20025;-81
2024/02/25 20:08:43;;;;;;;1999.90;999.90;;;;;;;10.11;100.00;94352.09;10407633;28;20021;-82
2024/02/25 20:13:43;;;;;;;1999.90;999.90;;;;;;;10.13;100.00;94343.75;10407832;28;20337;-82
2024/02/25 20:18:44;;;;;;;1999.90;999.90;;;;;;;9.97;100.00;94341.19;10424724;28;20514;-81
2024/02/25 20:23:44;;;;;;;1999.90;999.90;;;;;;;9.91;100.00;94336.94;10423822;28;20039;-81
2024/02/25 20:28:45;;;;;;;1999.90;999.90;;;;;;;9.84;100.00;94328.41;10425176;28;20701;-81
2024/02/25 20:33:45;;;;;;;1999.90;999.90;;;;;;;9.80;100.00;94324.69;10426047;28;20487;-80
2024/02/25 20:38:46;;;;;;;1999.90;999.90;;;;;;;9.79;100.00;94331.91;10423794;28;20088;-82
2024/02/25 20:43:46;;;;;;;1999.90;999.90;;;;;;;9.72;100.00;94331.41;10425245;28;20124;-85
2024/02/25 20:48:50;;;;;;;1999.90;999.90;;;;;;;9.73;100.00;94319.59;10431033;28;20123;-82
2024/02/25 20:53:50;;;;;;;1999.90;999.90;;;;;;;9.77;100.00;94314.47;10463397;28;20035;-81
2024/02/25 20:58:50;;;;;;;1999.90;999.90;;;;;;;9.71;100.00;94305.66;10463570;28;20021;-81
2024/02/25 21:03:51;;;;;;;1999.90;999.90;;;;;;;9.61;100.00;94300.34;10465028;28;20020;-82
2024/02/25 21:08:51;;;;;;;1999.90;999.90;;;;;;;9.69;100.00;94310.50;10462770;28;20025;-82
2024/02/25 21:13:51;;;;;;;1999.90;999.90;;;;;;;9.57;100.00;94303.59;10464517;28;20263;-82
2024/02/25 21:18:52;;;;;;;1999.90;999.90;;;;;;;9.47;100.00;94308.22;10464775;28;20437;-81
2024/02/25 21:23:54;;;;;;;1999.90;999.90;;;;;;;9.41;100.00;94308.22;10464522;28;20283;-82
2024/02/25 21:28:56;;;;;;;1999.90;999.90;;;;;;;9.05;100.00;94305.69;10446909;28;20020;-82
2024/02/25 21:33:56;;;;;;;1999.90;999.90;;;;;;;8.90;100.00;94316.47;10463506;28;20410;-83
2024/02/25 21:38:57;;;;;;;1999.90;999.90;;;;;;;8.95;100.00;94321.03;10463068;28;20021;-81
2024/02/25 21:43:57;;;;;;;1999.90;999.90;;;;;;;8.94;100.00;94312.19;10463455;28;20187;-80
2024/02/25 21:48:58;;;;;;;1999.90;999.90;;;;;;;8.95;100.00;94313.78;10463766;28;20289;-80